createdAt,value
2019-01-27T00:00:56.978Z,986.15
2019-01-27T00:01:56.987Z,986.16
2019-01-27T00:02:57.021Z,986.13
2019-01-27T00:03:56.984Z,986.08
2019-01-27T00:04:56.947Z,986.13
2019-01-27T00:05:56.928Z,986.08
2019-01-27T00:06:56.909Z,986.13
2019-01-27T00:07:56.908Z,986.08
2019-01-27T00:08:56.903Z,986.04
2019-01-27T00:09:56.901Z,986.07
2019-01-27T00:10:56.874Z,986.08
2019-01-27T00:11:56.900Z,986.03
2019-01-27T00:12:56.844Z,986.03
2019-01-27T00:13:56.832Z,985.91
2019-01-27T00:14:56.854Z,985.92
2019-01-27T00:15:56.812Z,985.88
2019-01-27T00:16:56.815Z,985.86
2019-01-27T00:17:56.798Z,985.84
2019-01-27T00:18:56.820Z,985.81
2019-01-27T00:19:56.788Z,985.83
2019-01-27T00:20:56.756Z,985.80
2019-01-27T00:21:56.751Z,985.80
2019-01-27T00:22:56.738Z,985.76
2019-01-27T00:23:56.743Z,985.85
2019-01-27T00:24:56.744Z,985.80
2019-01-27T00:25:56.706Z,985.80
2019-01-27T00:26:56.691Z,985.83
2019-01-27T00:27:56.713Z,985.81
2019-01-27T00:28:56.682Z,985.77
2019-01-27T00:29:56.685Z,985.73
2019-01-27T00:30:56.662Z,985.73
2019-01-27T00:31:56.639Z,985.72
2019-01-27T00:32:56.630Z,985.65
2019-01-27T00:33:56.619Z,985.57
2019-01-27T00:34:56.607Z,985.61
2019-01-27T00:35:56.615Z,985.55
2019-01-27T00:36:56.585Z,985.55
2019-01-27T00:37:56.577Z,985.57
2019-01-27T00:38:56.565Z,985.55
2019-01-27T00:39:56.588Z,985.49
2019-01-27T00:40:56.553Z,985.52
2019-01-27T00:41:56.531Z,985.42
2019-01-27T00:42:56.528Z,985.45
2019-01-27T00:43:56.510Z,985.37
2019-01-27T00:44:56.495Z,985.37
2019-01-27T00:45:56.522Z,985.44
2019-01-27T00:46:56.485Z,985.38
2019-01-27T00:47:56.474Z,985.37
2019-01-27T00:48:56.493Z,985.31
2019-01-27T00:49:56.463Z,985.27
2019-01-27T00:50:56.456Z,985.29
2019-01-27T00:51:56.434Z,985.22
2019-01-27T00:52:56.413Z,985.27
2019-01-27T00:53:56.396Z,985.24
2019-01-27T00:54:56.398Z,985.22
2019-01-27T00:55:56.409Z,985.14
2019-01-27T00:56:56.363Z,985.19
2019-01-27T00:57:56.354Z,985.14
2019-01-27T00:58:56.346Z,985.12
2019-01-27T00:59:56.333Z,985.15
2019-01-27T01:00:56.359Z,985.06
2019-01-27T01:01:56.319Z,985.04
2019-01-27T01:02:56.306Z,984.99
2019-01-27T01:03:56.320Z,985.00
2019-01-27T01:04:56.277Z,985.04
2019-01-27T01:05:56.273Z,984.98
2019-01-27T01:06:56.286Z,985.05
2019-01-27T01:07:56.247Z,985.03
2019-01-27T01:08:56.263Z,984.98
2019-01-27T01:09:56.227Z,984.91
2019-01-27T01:10:56.245Z,984.94
2019-01-27T01:11:56.223Z,984.96
2019-01-27T01:12:56.207Z,984.97
2019-01-27T01:13:56.179Z,984.93
2019-01-27T01:14:56.176Z,984.94
2019-01-27T01:15:56.161Z,984.91
2019-01-27T01:16:56.207Z,984.84
2019-01-27T01:17:56.142Z,984.84
2019-01-27T01:18:56.151Z,984.88
2019-01-27T01:19:56.136Z,984.80
2019-01-27T01:20:56.108Z,984.84
2019-01-27T01:21:56.091Z,984.73
2019-01-27T01:22:56.080Z,984.75
2019-01-27T01:23:56.086Z,984.67
2019-01-27T01:24:56.088Z,984.67
2019-01-27T01:25:56.046Z,984.64
2019-01-27T01:26:56.041Z,984.73
2019-01-27T01:27:56.039Z,984.66
2019-01-27T01:28:56.024Z,984.64
2019-01-27T01:29:56.043Z,984.63
2019-01-27T01:30:56.003Z,984.66
2019-01-27T01:31:55.990Z,984.59
2019-01-27T01:32:55.988Z,984.56
2019-01-27T01:33:55.968Z,984.55
2019-01-27T01:34:55.981Z,984.51
2019-01-27T01:35:55.951Z,984.50
2019-01-27T01:36:55.935Z,984.50
2019-01-27T01:37:55.919Z,984.56
2019-01-27T01:38:55.928Z,984.53
2019-01-27T01:39:55.920Z,984.47
2019-01-27T01:40:55.902Z,984.39
2019-01-27T01:41:55.875Z,984.43
2019-01-27T01:42:55.870Z,984.40
2019-01-27T01:43:55.864Z,984.47
2019-01-27T01:44:55.881Z,984.43
2019-01-27T01:45:55.851Z,984.48
2019-01-27T01:46:56.625Z,984.50
2019-01-27T01:47:55.823Z,984.43
2019-01-27T01:48:55.805Z,984.36
2019-01-27T01:49:55.791Z,984.31
2019-01-27T01:50:55.821Z,984.27
2019-01-27T01:51:55.766Z,984.27
2019-01-27T01:52:55.755Z,984.31
2019-01-27T01:53:55.744Z,984.25
2019-01-27T01:54:55.740Z,984.26
2019-01-27T01:55:55.749Z,984.20
2019-01-27T01:56:55.738Z,984.24
2019-01-27T01:57:55.700Z,984.21
2019-01-27T01:58:55.694Z,984.19
2019-01-27T01:59:55.677Z,984.13
2019-01-27T02:00:55.672Z,984.12
2019-01-27T02:01:55.677Z,984.15
2019-01-27T02:02:55.648Z,984.11
2019-01-27T02:03:55.639Z,984.11
2019-01-27T02:04:55.635Z,984.14
2019-01-27T02:05:55.619Z,984.04
2019-01-27T02:06:55.630Z,984.02
2019-01-27T02:07:55.600Z,984.06
2019-01-27T02:08:55.582Z,983.98
2019-01-27T02:09:55.568Z,983.98
2019-01-27T02:10:55.561Z,983.98
2019-01-27T02:11:55.548Z,983.98
2019-01-27T02:12:55.560Z,983.90
2019-01-27T02:13:55.533Z,983.91
2019-01-27T02:14:55.522Z,983.92
2019-01-27T02:15:55.503Z,983.90
2019-01-27T02:16:55.507Z,983.82
2019-01-27T02:17:55.521Z,983.77
2019-01-27T02:18:55.479Z,983.69
2019-01-27T02:19:55.500Z,983.69
2019-01-27T02:20:55.451Z,983.60
2019-01-27T02:21:55.445Z,983.59
2019-01-27T02:22:55.478Z,983.59
2019-01-27T02:23:55.444Z,983.59
2019-01-27T02:24:55.407Z,983.49
2019-01-27T02:25:55.407Z,983.55
2019-01-27T02:26:55.393Z,983.49
2019-01-27T02:27:55.376Z,983.39
2019-01-27T02:28:55.434Z,983.42
2019-01-27T02:29:55.361Z,983.37
2019-01-27T02:30:55.340Z,983.26
2019-01-27T02:31:55.336Z,983.28
2019-01-27T02:32:55.325Z,983.29
2019-01-27T02:33:55.374Z,983.26
2019-01-27T02:34:55.334Z,983.30
2019-01-27T02:35:55.289Z,983.25
2019-01-27T02:36:55.288Z,983.33
2019-01-27T02:37:55.303Z,983.25
2019-01-27T02:38:55.286Z,983.23
2019-01-27T02:39:55.248Z,983.20
2019-01-27T02:40:55.299Z,983.11
2019-01-27T02:41:55.224Z,983.08
2019-01-27T02:42:55.218Z,983.05
2019-01-27T02:43:55.222Z,983.05
2019-01-27T02:44:55.211Z,983.06
2019-01-27T02:45:55.178Z,983.01
2019-01-27T02:46:55.171Z,983.06
2019-01-27T02:47:55.162Z,982.95
2019-01-27T02:48:55.146Z,982.98
2019-01-27T02:49:55.185Z,982.92
2019-01-27T02:50:55.125Z,982.86
2019-01-27T02:51:55.113Z,982.86
2019-01-27T02:52:55.112Z,982.77
2019-01-27T02:53:55.096Z,982.76
2019-01-27T02:54:55.114Z,982.78
2019-01-27T02:55:55.071Z,982.71
2019-01-27T02:56:55.061Z,982.68
2019-01-27T02:57:55.052Z,982.68
2019-01-27T02:58:55.037Z,982.68
2019-01-27T02:59:55.028Z,982.68
2019-01-27T03:00:55.042Z,982.66
2019-01-27T03:01:55.023Z,982.70
2019-01-27T03:02:54.993Z,982.65
2019-01-27T03:03:54.990Z,982.64
2019-01-27T03:04:55.004Z,982.61
2019-01-27T03:05:54.988Z,982.55
2019-01-27T03:06:54.956Z,982.54
2019-01-27T03:07:54.947Z,982.54
2019-01-27T03:08:54.936Z,982.61
2019-01-27T03:09:54.930Z,982.57
2019-01-27T03:10:54.922Z,982.52
2019-01-27T03:11:54.902Z,982.51
2019-01-27T03:12:54.898Z,982.49
2019-01-27T03:13:54.888Z,982.45
2019-01-27T03:14:54.877Z,982.46
2019-01-27T03:15:54.927Z,982.44
2019-01-27T03:16:54.860Z,982.34
2019-01-27T03:17:54.833Z,982.34
2019-01-27T03:18:54.825Z,982.30
2019-01-27T03:19:54.807Z,982.27
2019-01-27T03:20:54.821Z,982.27
2019-01-27T03:21:54.822Z,982.22
2019-01-27T03:22:54.811Z,982.06
2019-01-27T03:23:54.770Z,982.13
2019-01-27T03:24:54.757Z,982.13
2019-01-27T03:25:54.746Z,982.08
2019-01-27T03:26:54.769Z,982.09
2019-01-27T03:27:54.728Z,982.10
2019-01-27T03:28:54.716Z,982.13
2019-01-27T03:29:54.703Z,982.11
2019-01-27T03:30:54.690Z,982.13
2019-01-27T03:31:54.719Z,982.09
2019-01-27T03:32:54.673Z,982.06
2019-01-27T03:33:54.662Z,982.04
2019-01-27T03:34:54.672Z,982.09
2019-01-27T03:35:54.639Z,982.08
2019-01-27T03:36:54.646Z,982.00
2019-01-27T03:37:54.631Z,982.00
2019-01-27T03:38:54.604Z,981.99
2019-01-27T03:39:54.593Z,981.94
2019-01-27T03:40:54.586Z,981.92
2019-01-27T03:41:54.588Z,981.92
2019-01-27T03:42:54.598Z,981.92
2019-01-27T03:43:54.562Z,982.03
2019-01-27T03:44:54.543Z,981.97
2019-01-27T03:45:54.526Z,982.01
2019-01-27T03:46:54.527Z,981.94
2019-01-27T03:47:54.565Z,982.00
2019-01-27T03:48:54.500Z,981.98
2019-01-27T03:49:54.489Z,981.99
2019-01-27T03:50:54.475Z,981.89
2019-01-27T03:51:54.471Z,981.91
2019-01-27T03:52:54.449Z,981.90
2019-01-27T03:53:54.470Z,981.87
2019-01-27T03:54:54.434Z,981.83
2019-01-27T03:55:54.469Z,981.85
2019-01-27T03:56:54.411Z,981.82
2019-01-27T03:57:54.399Z,981.88
2019-01-27T03:58:54.430Z,981.82
2019-01-27T03:59:54.386Z,981.75
2019-01-27T04:00:54.367Z,981.69
2019-01-27T04:01:54.354Z,981.75
2019-01-27T04:02:54.342Z,981.69
2019-01-27T04:03:54.370Z,981.66
2019-01-27T04:04:54.323Z,981.64
2019-01-27T04:05:54.330Z,981.55
2019-01-27T04:06:54.302Z,981.59
2019-01-27T04:07:54.290Z,981.58
2019-01-27T04:08:54.284Z,981.57
2019-01-27T04:09:54.268Z,981.53
2019-01-27T04:10:54.289Z,981.49
2019-01-27T04:11:54.257Z,981.46
2019-01-27T04:12:54.246Z,981.53
2019-01-27T04:13:54.226Z,981.54
2019-01-27T04:14:54.210Z,981.40
2019-01-27T04:15:54.234Z,981.41
2019-01-27T04:16:54.192Z,981.47
2019-01-27T04:17:54.182Z,981.43
2019-01-27T04:18:54.176Z,981.41
2019-01-27T04:19:54.163Z,981.40
2019-01-27T04:20:54.194Z,981.37
2019-01-27T04:21:54.141Z,981.38
2019-01-27T04:22:54.122Z,981.39
2019-01-27T04:23:54.116Z,981.34
2019-01-27T04:24:54.104Z,981.33
2019-01-27T04:25:54.129Z,981.40
2019-01-27T04:26:54.118Z,981.31
2019-01-27T04:27:54.076Z,981.32
2019-01-27T04:28:54.059Z,981.24
2019-01-27T04:29:54.097Z,981.25
2019-01-27T04:30:54.051Z,981.19
2019-01-27T04:31:54.049Z,981.15
2019-01-27T04:32:54.027Z,981.16
2019-01-27T04:33:54.010Z,981.10
2019-01-27T04:34:54.003Z,981.09
2019-01-27T04:35:53.981Z,981.03
2019-01-27T04:36:54.005Z,981.01
2019-01-27T04:37:53.979Z,980.98
2019-01-27T04:38:53.967Z,981.01
2019-01-27T04:39:53.939Z,980.90
2019-01-27T04:40:53.941Z,980.96
2019-01-27T04:41:53.961Z,980.88
2019-01-27T04:42:53.911Z,980.88
2019-01-27T04:43:53.895Z,980.86
2019-01-27T04:44:53.889Z,980.79
2019-01-27T04:45:53.886Z,980.76
2019-01-27T04:46:53.862Z,980.67
2019-01-27T04:47:53.869Z,980.76
2019-01-27T04:48:53.849Z,980.68
2019-01-27T04:49:53.856Z,980.68
2019-01-27T04:50:53.824Z,980.67
2019-01-27T04:51:53.815Z,980.66
2019-01-27T04:52:53.823Z,980.69
2019-01-27T04:53:53.795Z,980.63
2019-01-27T04:54:53.782Z,980.61
2019-01-27T04:55:53.764Z,980.62
2019-01-27T04:56:53.753Z,980.62
2019-01-27T04:57:53.778Z,980.61
2019-01-27T04:58:53.732Z,980.58
2019-01-27T04:59:53.752Z,980.58
2019-01-27T05:00:53.738Z,980.53
2019-01-27T05:01:53.702Z,980.59
2019-01-27T05:02:53.737Z,980.58
2019-01-27T05:03:53.701Z,980.58
2019-01-27T05:04:53.670Z,980.55
2019-01-27T05:05:53.658Z,980.57
2019-01-27T05:06:53.649Z,980.50
2019-01-27T05:07:53.655Z,980.47
2019-01-27T05:08:53.653Z,980.48
2019-01-27T05:09:53.637Z,980.41
2019-01-27T05:10:53.605Z,980.37
2019-01-27T05:11:53.598Z,980.45
2019-01-27T05:12:53.580Z,980.37
2019-01-27T05:13:53.632Z,980.33
2019-01-27T05:14:53.572Z,980.37
2019-01-27T05:15:53.547Z,980.33
2019-01-27T05:16:53.541Z,980.31
2019-01-27T05:17:53.528Z,980.22
2019-01-27T05:18:53.513Z,980.20
2019-01-27T05:19:53.540Z,980.21
2019-01-27T05:20:53.522Z,980.12
2019-01-27T05:21:53.486Z,980.11
2019-01-27T05:22:53.473Z,980.09
2019-01-27T05:23:53.488Z,980.10
2019-01-27T05:24:53.481Z,980.06
2019-01-27T05:25:53.454Z,980.09
2019-01-27T05:26:53.446Z,980.02
2019-01-27T05:27:53.423Z,980.05
2019-01-27T05:28:53.418Z,979.98
2019-01-27T05:29:53.433Z,980.03
2019-01-27T05:30:53.390Z,979.98
2019-01-27T05:31:53.380Z,979.98
2019-01-27T05:32:53.379Z,980.00
2019-01-27T05:33:53.353Z,980.06
2019-01-27T05:34:53.341Z,980.07
2019-01-27T05:35:53.358Z,980.02
2019-01-27T05:36:53.328Z,979.98
2019-01-27T05:37:53.317Z,979.97
2019-01-27T05:38:53.306Z,980.00
2019-01-27T05:39:53.294Z,980.01
2019-01-27T05:40:53.308Z,980.00
2019-01-27T05:41:53.275Z,979.94
2019-01-27T05:42:53.259Z,979.94
2019-01-27T05:43:53.249Z,979.91
2019-01-27T05:44:53.240Z,979.84
2019-01-27T05:45:53.261Z,979.83
2019-01-27T05:46:53.243Z,979.86
2019-01-27T05:47:53.205Z,979.77
2019-01-27T05:48:53.194Z,979.77
2019-01-27T05:49:53.180Z,979.69
2019-01-27T05:50:53.171Z,979.67
2019-01-27T05:51:53.196Z,979.70
2019-01-27T05:52:53.148Z,979.71
2019-01-27T05:53:53.170Z,979.60
2019-01-27T05:54:53.134Z,979.61
2019-01-27T05:55:53.161Z,979.61
2019-01-27T05:56:56.640Z,979.59
2019-01-27T05:57:53.103Z,979.63
2019-01-27T05:58:53.101Z,979.59
2019-01-27T05:59:53.111Z,979.63
2019-01-27T06:00:53.061Z,979.71
2019-01-27T06:01:53.068Z,979.66
2019-01-27T06:02:53.036Z,979.68
2019-01-27T06:03:53.034Z,979.67
2019-01-27T06:04:53.040Z,979.59
2019-01-27T06:05:53.004Z,979.65
2019-01-27T06:06:53.009Z,979.64
2019-01-27T06:07:52.990Z,979.53
2019-01-27T06:08:52.985Z,979.48
2019-01-27T06:09:53.003Z,979.44
2019-01-27T06:10:52.964Z,979.43
2019-01-27T06:11:52.945Z,979.36
2019-01-27T06:12:52.936Z,979.36
2019-01-27T06:13:52.921Z,979.31
2019-01-27T06:14:52.947Z,979.31
2019-01-27T06:15:52.918Z,979.20
2019-01-27T06:16:52.898Z,979.17
2019-01-27T06:17:52.891Z,979.20
2019-01-27T06:18:52.865Z,979.18
2019-01-27T06:19:52.866Z,979.15
2019-01-27T06:20:52.873Z,979.14
2019-01-27T06:21:52.834Z,979.15
2019-01-27T06:22:52.823Z,979.08
2019-01-27T06:23:52.825Z,979.09
2019-01-27T06:24:52.804Z,979.05
2019-01-27T06:25:52.848Z,979.09
2019-01-27T06:26:52.785Z,979.05
2019-01-27T06:27:52.768Z,979.04
2019-01-27T06:28:52.763Z,979.01
2019-01-27T06:29:52.751Z,978.98
2019-01-27T06:30:52.751Z,979.01
2019-01-27T06:31:52.742Z,978.97
2019-01-27T06:32:52.741Z,978.89
2019-01-27T06:33:52.704Z,978.93
2019-01-27T06:34:52.696Z,978.91
2019-01-27T06:35:52.690Z,978.92
2019-01-27T06:36:53.487Z,978.94
2019-01-27T06:37:52.663Z,978.93
2019-01-27T06:38:52.654Z,978.90
2019-01-27T06:39:52.636Z,978.89
2019-01-27T06:40:52.632Z,978.96
2019-01-27T06:41:52.647Z,978.95
2019-01-27T06:42:52.607Z,978.90
2019-01-27T06:43:52.597Z,978.86
2019-01-27T06:44:52.601Z,978.90
2019-01-27T06:45:52.572Z,978.89
2019-01-27T06:46:52.560Z,978.90
2019-01-27T06:47:52.554Z,978.91
2019-01-27T06:48:52.549Z,978.94
2019-01-27T06:49:52.547Z,978.91
2019-01-27T06:50:52.515Z,978.90
2019-01-27T06:51:52.512Z,978.90
2019-01-27T06:52:52.498Z,978.89
2019-01-27T06:53:52.489Z,978.87
2019-01-27T06:54:52.491Z,978.82
2019-01-27T06:55:52.462Z,978.86
2019-01-27T06:56:52.450Z,978.85
2019-01-27T06:57:52.462Z,978.81
2019-01-27T06:58:52.429Z,978.84
2019-01-27T06:59:52.442Z,978.82
2019-01-27T07:00:52.410Z,978.80
2019-01-27T07:01:52.404Z,978.80
2019-01-27T07:02:52.386Z,978.82
2019-01-27T07:03:53.287Z,978.77
2019-01-27T07:04:52.397Z,978.78
2019-01-27T07:05:52.359Z,978.79
2019-01-27T07:06:52.348Z,978.71
2019-01-27T07:07:52.348Z,978.75
2019-01-27T07:08:52.337Z,978.66
2019-01-27T07:09:52.315Z,978.72
2019-01-27T07:10:52.323Z,978.79
2019-01-27T07:11:52.313Z,978.77
2019-01-27T07:12:52.287Z,978.72
2019-01-27T07:13:52.287Z,978.75
2019-01-27T07:14:52.266Z,978.77
2019-01-27T07:15:52.267Z,978.72
2019-01-27T07:16:52.238Z,978.69
2019-01-27T07:17:52.229Z,978.66
2019-01-27T07:18:52.213Z,978.62
2019-01-27T07:19:52.203Z,978.59
2019-01-27T07:20:52.210Z,978.56
2019-01-27T07:21:52.189Z,978.60
2019-01-27T07:22:52.180Z,978.59
2019-01-27T07:23:52.165Z,978.59
2019-01-27T07:24:52.153Z,978.61
2019-01-27T07:25:52.177Z,978.59
2019-01-27T07:26:52.130Z,978.57
2019-01-27T07:27:52.113Z,978.54
2019-01-27T07:28:52.103Z,978.50
2019-01-27T07:29:52.095Z,978.53
2019-01-27T07:30:52.095Z,978.49
2019-01-27T07:31:52.105Z,978.46
2019-01-27T07:32:52.063Z,978.54
2019-01-27T07:33:52.052Z,978.50
2019-01-27T07:34:52.047Z,978.39
2019-01-27T07:35:52.032Z,978.49
2019-01-27T07:36:52.046Z,978.43
2019-01-27T07:37:52.022Z,978.40
2019-01-27T07:38:51.998Z,978.31
2019-01-27T07:39:51.983Z,978.41
2019-01-27T07:40:52.054Z,978.31
2019-01-27T07:41:51.981Z,978.40
2019-01-27T07:42:51.962Z,978.40
2019-01-27T07:43:51.956Z,978.32
2019-01-27T07:44:51.942Z,978.33
2019-01-27T07:45:51.946Z,978.34
2019-01-27T07:46:51.911Z,978.28
2019-01-27T07:47:51.901Z,978.33
2019-01-27T07:48:51.886Z,978.35
2019-01-27T07:49:51.888Z,978.27
2019-01-27T07:50:51.891Z,978.35
2019-01-27T07:51:51.859Z,978.32
2019-01-27T07:52:51.850Z,978.35
2019-01-27T07:53:51.838Z,978.33
2019-01-27T07:54:51.849Z,978.36
2019-01-27T07:55:51.850Z,978.35
2019-01-27T07:56:51.807Z,978.30
2019-01-27T07:57:51.804Z,978.27
2019-01-27T07:58:51.785Z,978.28
2019-01-27T07:59:51.780Z,978.28
2019-01-27T08:00:51.796Z,978.23
2019-01-27T08:01:51.747Z,978.19
2019-01-27T08:02:51.739Z,978.27
2019-01-27T08:03:51.734Z,978.22
2019-01-27T08:04:51.723Z,978.17
2019-01-27T08:05:51.819Z,978.23
2019-01-27T08:06:51.714Z,978.22
2019-01-27T08:07:51.688Z,978.14
2019-01-27T08:08:51.678Z,978.21
2019-01-27T08:09:51.668Z,978.21
2019-01-27T08:10:51.653Z,978.16
2019-01-27T08:11:51.659Z,978.13
2019-01-27T08:12:51.633Z,978.14
2019-01-27T08:13:51.620Z,978.17
2019-01-27T08:14:51.604Z,978.12
2019-01-27T08:15:51.606Z,978.21
2019-01-27T08:16:51.597Z,978.11
2019-01-27T08:17:51.576Z,978.11
2019-01-27T08:18:51.567Z,978.11
2019-01-27T08:19:51.547Z,978.07
2019-01-27T08:20:51.539Z,978.06
2019-01-27T08:21:51.560Z,978.11
2019-01-27T08:22:51.516Z,978.09
2019-01-27T08:23:51.507Z,978.08
2019-01-27T08:24:51.504Z,978.04
2019-01-27T08:25:51.491Z,978.03
2019-01-27T08:26:51.498Z,978.03
2019-01-27T08:27:51.469Z,978.07
2019-01-27T08:28:51.458Z,978.07
2019-01-27T08:29:51.460Z,977.95
2019-01-27T08:30:51.491Z,977.99
2019-01-27T08:31:51.446Z,978.02
2019-01-27T08:32:51.409Z,978.01
2019-01-27T08:33:51.409Z,978.03
2019-01-27T08:34:51.402Z,978.05
2019-01-27T08:35:51.390Z,978.04
2019-01-27T08:36:51.367Z,978.03
2019-01-27T08:37:51.370Z,977.98
2019-01-27T08:38:51.353Z,978.00
2019-01-27T08:39:51.367Z,977.99
2019-01-27T08:40:51.323Z,977.91
2019-01-27T08:41:51.318Z,977.98
2019-01-27T08:42:51.323Z,977.93
2019-01-27T08:43:51.296Z,977.94
2019-01-27T08:44:51.277Z,977.88
2019-01-27T08:45:51.272Z,977.94
2019-01-27T08:46:51.266Z,977.91
2019-01-27T08:47:51.268Z,977.90
2019-01-27T08:48:51.273Z,977.80
2019-01-27T08:49:51.226Z,977.83
2019-01-27T08:50:51.227Z,977.92
2019-01-27T08:51:51.225Z,977.76
2019-01-27T08:52:51.232Z,977.74
2019-01-27T08:53:51.191Z,977.76
2019-01-27T08:54:51.217Z,977.71
2019-01-27T08:55:51.162Z,977.69
2019-01-27T08:56:51.158Z,977.74
2019-01-27T08:57:51.169Z,977.68
2019-01-27T08:58:51.165Z,977.67
2019-01-27T08:59:51.129Z,977.70
2019-01-27T09:00:51.112Z,977.70
2019-01-27T09:01:51.105Z,977.68
2019-01-27T09:02:51.102Z,977.69
2019-01-27T09:03:51.099Z,977.68
2019-01-27T09:04:51.068Z,977.72
2019-01-27T09:05:51.060Z,977.71
2019-01-27T09:06:51.047Z,977.65
2019-01-27T09:07:51.037Z,977.65
2019-01-27T09:08:51.054Z,977.71
2019-01-27T09:09:51.006Z,977.65
2019-01-27T09:10:51.000Z,977.72
2019-01-27T09:11:50.985Z,977.64
2019-01-27T09:12:50.984Z,977.60
2019-01-27T09:13:50.968Z,977.63
2019-01-27T09:14:50.983Z,977.66
2019-01-27T09:15:50.982Z,977.64
2019-01-27T09:16:50.930Z,977.61
2019-01-27T09:17:50.940Z,977.62
2019-01-27T09:18:50.912Z,977.62
2019-01-27T09:19:50.929Z,977.64
2019-01-27T09:20:50.904Z,977.66
2019-01-27T09:21:50.883Z,977.63
2019-01-27T09:22:50.889Z,977.69
2019-01-27T09:23:50.855Z,977.67
2019-01-27T09:24:50.851Z,977.65
2019-01-27T09:25:50.853Z,977.66
2019-01-27T09:26:50.822Z,977.63
2019-01-27T09:27:50.839Z,977.61
2019-01-27T09:28:50.800Z,977.62
2019-01-27T09:29:50.823Z,977.66
2019-01-27T09:30:50.780Z,977.65
2019-01-27T09:31:50.776Z,977.63
2019-01-27T09:32:50.799Z,977.65
2019-01-27T09:33:50.751Z,977.73
2019-01-27T09:34:50.736Z,977.65
2019-01-27T09:35:50.730Z,977.73
2019-01-27T09:36:50.728Z,977.73
2019-01-27T09:37:50.758Z,977.71
2019-01-27T09:38:50.698Z,977.72
2019-01-27T09:39:50.690Z,977.75
2019-01-27T09:40:50.689Z,977.71
2019-01-27T09:41:50.669Z,977.75
2019-01-27T09:42:50.668Z,977.79
2019-01-27T09:43:50.658Z,977.70
2019-01-27T09:44:50.632Z,977.70
2019-01-27T09:46:05.088Z,977.69
2019-01-27T09:46:51.611Z,977.72
2019-01-27T09:47:50.616Z,977.70
2019-01-27T09:48:50.596Z,977.68
2019-01-27T09:49:50.640Z,977.69
2019-01-27T09:50:50.569Z,977.62
2019-01-27T09:51:50.560Z,977.65
2019-01-27T09:52:50.577Z,977.67
2019-01-27T09:53:50.564Z,977.69
2019-01-27T09:54:50.525Z,977.66
2019-01-27T09:55:50.511Z,977.70
2019-01-27T09:56:50.509Z,977.64
2019-01-27T09:57:50.564Z,977.63
2019-01-27T09:58:50.500Z,977.61
2019-01-27T09:59:50.465Z,977.60
2019-01-27T10:00:50.468Z,977.61
2019-01-27T10:01:50.449Z,977.66
2019-01-27T10:02:51.758Z,977.64
2019-01-27T10:03:50.486Z,977.66
2019-01-27T10:04:50.415Z,977.61
2019-01-27T10:05:50.404Z,977.64
2019-01-27T10:06:50.394Z,977.66
2019-01-27T10:07:50.382Z,977.62
2019-01-27T10:08:50.434Z,977.65
2019-01-27T10:09:50.383Z,977.64
2019-01-27T10:10:50.345Z,977.60
2019-01-27T10:11:50.339Z,977.54
2019-01-27T10:12:50.350Z,977.55
2019-01-27T10:13:50.316Z,977.51
2019-01-27T10:14:50.328Z,977.60
2019-01-27T10:15:50.313Z,977.62
2019-01-27T10:16:50.289Z,977.56
2019-01-27T10:17:50.282Z,977.53
2019-01-27T10:18:50.267Z,977.52
2019-01-27T10:19:50.296Z,977.50
2019-01-27T10:20:50.248Z,977.48
2019-01-27T10:21:50.238Z,977.47
2019-01-27T10:22:50.223Z,977.45
2019-01-27T10:23:50.216Z,977.40
2019-01-27T10:24:50.199Z,977.35
2019-01-27T10:25:50.204Z,977.20
2019-01-27T10:26:50.180Z,977.34
2019-01-27T10:27:50.168Z,977.26
2019-01-27T10:28:50.188Z,977.16
2019-01-27T10:29:50.146Z,977.25
2019-01-27T10:30:50.137Z,977.24
2019-01-27T10:31:50.131Z,977.21
2019-01-27T10:32:50.134Z,977.10
2019-01-27T10:33:50.138Z,977.07
2019-01-27T10:34:50.103Z,977.15
2019-01-27T10:35:50.082Z,977.11
2019-01-27T10:36:50.066Z,977.22
2019-01-27T10:37:50.057Z,977.19
2019-01-27T10:38:50.089Z,977.21
2019-01-27T10:39:50.034Z,977.16
2019-01-27T10:40:50.039Z,977.07
2019-01-27T10:41:50.013Z,977.01
2019-01-27T10:42:49.997Z,976.93
2019-01-27T10:43:50.014Z,976.96
2019-01-27T10:44:49.989Z,976.95
2019-01-27T10:45:49.964Z,976.94
2019-01-27T10:46:50.025Z,976.96
2019-01-27T10:47:49.962Z,976.89
2019-01-27T10:48:49.975Z,976.86
2019-01-27T10:49:49.931Z,976.83
2019-01-27T10:50:49.930Z,976.84
2019-01-27T10:51:49.904Z,976.83
2019-01-27T10:52:49.909Z,976.87
2019-01-27T10:53:49.893Z,976.80
2019-01-27T10:54:49.867Z,976.80
2019-01-27T10:55:49.859Z,976.90
2019-01-27T10:56:49.842Z,976.84
2019-01-27T10:57:49.840Z,976.78
2019-01-27T10:58:49.855Z,976.70
2019-01-27T10:59:49.813Z,976.76
2019-01-27T11:00:49.805Z,976.72
2019-01-27T11:01:49.829Z,976.73
2019-01-27T11:02:49.789Z,976.77
2019-01-27T11:03:49.789Z,976.75
2019-01-27T11:04:49.778Z,976.80
2019-01-27T11:05:49.745Z,976.74
2019-01-27T11:06:49.742Z,976.69
2019-01-27T11:07:49.733Z,976.65
2019-01-27T11:08:49.708Z,976.72
2019-01-27T11:09:49.724Z,976.67
2019-01-27T11:10:49.706Z,976.69
2019-01-27T11:11:49.677Z,976.62
2019-01-27T11:12:49.668Z,976.66
2019-01-27T11:13:49.666Z,976.64
2019-01-27T11:14:49.680Z,976.68
2019-01-27T11:15:49.658Z,976.72
2019-01-27T11:16:49.621Z,976.61
2019-01-27T11:17:49.626Z,976.67
2019-01-27T11:18:49.605Z,976.61
2019-01-27T11:19:49.612Z,976.57
2019-01-27T11:20:49.603Z,976.54
2019-01-27T11:21:49.571Z,976.58
2019-01-27T11:22:49.556Z,976.54
2019-01-27T11:23:49.607Z,976.46
2019-01-27T11:24:49.551Z,976.41
2019-01-27T11:25:49.550Z,976.37
2019-01-27T11:26:49.514Z,976.46
2019-01-27T11:27:49.506Z,976.35
2019-01-27T11:28:49.497Z,976.41
2019-01-27T11:29:49.479Z,976.42
2019-01-27T11:30:49.506Z,976.35
2019-01-27T11:31:49.464Z,976.38
2019-01-27T11:32:49.450Z,976.38
2019-01-27T11:33:49.447Z,976.33
2019-01-27T11:34:49.428Z,976.46
2019-01-27T11:35:49.418Z,976.48
2019-01-27T11:36:49.428Z,976.43
2019-01-27T11:37:49.395Z,976.39
2019-01-27T11:38:49.382Z,976.36
2019-01-27T11:39:49.367Z,976.40
2019-01-27T11:40:49.359Z,976.38
2019-01-27T11:41:49.363Z,976.32
2019-01-27T11:42:49.355Z,976.30
2019-01-27T11:43:49.323Z,976.31
2019-01-27T11:44:49.331Z,976.24
2019-01-27T11:45:49.327Z,976.27
2019-01-27T11:46:49.315Z,976.32
2019-01-27T11:47:49.290Z,976.21
2019-01-27T11:48:49.273Z,976.25
2019-01-27T11:49:49.307Z,976.23
2019-01-27T11:50:49.251Z,976.24
2019-01-27T11:51:49.254Z,976.21
2019-01-27T11:52:49.227Z,976.19
2019-01-27T11:53:49.240Z,976.19
2019-01-27T11:54:49.212Z,976.22
2019-01-27T11:55:49.197Z,976.19
2019-01-27T11:56:49.189Z,976.12
2019-01-27T11:57:49.201Z,976.19
2019-01-27T11:58:49.179Z,976.22
2019-01-27T11:59:49.150Z,976.19
2019-01-27T12:00:49.158Z,976.16
2019-01-27T12:01:49.131Z,976.14
2019-01-27T12:02:49.116Z,976.15
2019-01-27T12:03:49.125Z,976.17
2019-01-27T12:04:49.089Z,976.09
2019-01-27T12:05:49.084Z,976.10
2019-01-27T12:06:49.099Z,976.12
2019-01-27T12:07:49.064Z,976.14
2019-01-27T12:08:49.075Z,975.95
2019-01-27T12:09:49.040Z,976.00
2019-01-27T12:10:49.025Z,975.99
2019-01-27T12:11:49.015Z,976.02
2019-01-27T12:12:49.019Z,976.04
2019-01-27T12:13:49.049Z,976.01
2019-01-27T12:14:48.984Z,975.93
2019-01-27T12:15:48.995Z,975.96
2019-01-27T12:16:48.981Z,975.92
2019-01-27T12:17:48.949Z,975.91
2019-01-27T12:18:49.907Z,975.95
2019-01-27T12:19:48.961Z,975.88
2019-01-27T12:20:48.915Z,975.91
2019-01-27T12:21:48.906Z,975.82
2019-01-27T12:22:48.899Z,975.87
2019-01-27T12:23:48.888Z,975.77
2019-01-27T12:24:48.893Z,975.77
2019-01-27T12:25:48.897Z,975.85
2019-01-27T12:26:48.844Z,975.75
2019-01-27T12:27:48.837Z,975.79
2019-01-27T12:28:48.844Z,975.68